Time;durP1;ratioP1;P1;durP2;ratioP2;P2;SDS_P1;SDS_P2;PMS_P1;PMS_P2;Temp;Humidity;BMP_temperature;BMP_pressure;BME280_temperature;BME280_humidity;BME280_pressure;Samples;Min_cycle;Max_cycle;Signal;HPM_P1;HPM_P2
2021/03/06 00:02:16;;;;;;;18.67;9.45;;;0.70;79.10;;;;;;5060216;28;20032;-72
2021/03/06 00:04:43;;;;;;;16.33;9.70;;;0.70;79.20;;;;;;5064361;28;20459;-72
2021/03/06 00:07:09;;;;;;;16.75;9.15;;;0.70;79.20;;;;;;5062327;28;20036;-71
2021/03/06 00:09:36;;;;;;;16.60;9.32;;;0.70;79.30;;;;;;5065124;28;20350;-71
2021/03/06 00:12:05;;;;;;;17.85;9.30;;;0.60;79.30;;;;;;5061339;28;20035;-71
2021/03/06 00:14:31;;;;;;;15.98;8.93;;;0.60;79.30;;;;;;5054016;28;20399;-72
2021/03/06 00:16:58;;;;;;;16.95;8.60;;;0.60;79.20;;;;;;5064185;28;20364;-72
2021/03/06 00:19:23;;;;;;;17.08;8.98;;;0.60;79.10;;;;;;5062981;28;20032;-71
2021/03/06 00:21:49;;;;;;;19.75;9.07;;;0.60;79.00;;;;;;5068111;28;20064;-71
2021/03/06 00:24:15;;;;;;;17.80;9.35;;;0.60;79.10;;;;;;5063703;28;20060;-75
2021/03/06 00:26:40;;;;;;;14.88;8.40;;;0.60;79.00;;;;;;5066315;28;20028;-71
2021/03/06 00:29:06;;;;;;;18.80;9.63;;;0.60;79.10;;;;;;5070227;28;20028;-73
2021/03/06 00:31:32;;;;;;;18.17;8.93;;;0.60;79.20;;;;;;5068113;28;20055;-74
2021/03/06 00:33:57;;;;;;;19.08;9.90;;;0.60;79.10;;;;;;5083560;28;20074;-72
2021/03/06 00:36:23;;;;;;;19.55;9.38;;;0.60;79.10;;;;;;5066231;28;20471;-72
2021/03/06 00:38:49;;;;;;;17.08;10.60;;;0.60;79.00;;;;;;5065349;28;20036;-73
2021/03/06 00:41:14;;;;;;;20.80;10.60;;;0.60;78.90;;;;;;5068439;28;20040;-73
2021/03/06 00:43:40;;;;;;;18.50;10.32;;;0.60;79.00;;;;;;5067603;28;20464;-73
2021/03/06 00:46:06;;;;;;;22.17;10.55;;;0.60;79.10;;;;;;5066605;28;20405;-71
2021/03/06 00:48:31;;;;;;;18.05;11.05;;;0.60;79.20;;;;;;5062992;28;20040;-72
2021/03/06 00:50:57;;;;;;;16.42;9.93;;;0.60;79.40;;;;;;5062969;28;20036;-74
2021/03/06 00:53:23;;;;;;;21.45;10.38;;;0.50;79.30;;;;;;5068766;28;20036;-72
2021/03/06 00:55:49;;;;;;;20.23;10.88;;;0.50;79.40;;;;;;5065170;28;20055;-72
2021/03/06 00:58:14;;;;;;;19.83;10.45;;;0.40;79.40;;;;;;5069047;28;20037;-73
2021/03/06 01:00:40;;;;;;;21.48;11.70;;;0.40;79.50;;;;;;5066599;28;20050;-72
2021/03/06 01:03:07;;;;;;;19.85;11.43;;;0.30;79.60;;;;;;5067586;28;20040;-72
2021/03/06 01:05:33;;;;;;;22.73;11.20;;;0.30;79.70;;;;;;5067565;28;20105;-72
2021/03/06 01:07:58;;;;;;;22.95;12.07;;;0.30;79.70;;;;;;5065990;28;20027;-75
2021/03/06 01:10:30;;;;;;;19.65;11.70;;;0.20;79.90;;;;;;5071520;28;20036;-71
2021/03/06 01:12:56;;;;;;;20.85;11.43;;;0.10;79.90;;;;;;5067964;28;20099;-71
2021/03/06 01:15:22;;;;;;;20.40;12.25;;;0.10;80.00;;;;;;5061730;28;20044;-72
2021/03/06 01:17:47;;;;;;;23.58;12.00;;;0.10;80.10;;;;;;5068651;28;20111;-71
2021/03/06 01:20:14;;;;;;;19.98;10.60;;;0.10;80.20;;;;;;5067101;28;20043;-74
2021/03/06 01:22:39;;;;;;;18.27;11.60;;;0.10;80.10;;;;;;5067945;28;20083;-72
2021/03/06 01:25:06;;;;;;;18.00;11.30;;;0.00;80.10;;;;;;5062751;28;20843;-71
2021/03/06 01:27:32;;;;;;;17.67;9.65;;;0.00;80.00;;;;;;5070079;28;20367;-71
2021/03/06 01:29:57;;;;;;;20.70;10.52;;;0.00;80.10;;;;;;5059911;28;20028;-71
2021/03/06 01:32:23;;;;;;;18.63;9.25;;;0.00;80.20;;;;;;5064258;28;20039;-72
2021/03/06 01:34:49;;;;;;;15.05;9.38;;;0.00;80.40;;;;;;5069680;28;20049;-72
2021/03/06 01:37:15;;;;;;;14.43;8.85;;;0.00;80.60;;;;;;5059848;28;20035;-74
2021/03/06 01:39:40;;;;;;;16.25;9.20;;;0.00;80.80;;;;;;5058289;28;20028;-71
2021/03/06 01:42:07;;;;;;;15.95;9.73;;;0.00;80.90;;;;;;5060103;28;20908;-73
2021/03/06 01:44:33;;;;;;;15.55;9.75;;;0.00;80.90;;;;;;5063519;28;20036;-74
2021/03/06 01:46:59;;;;;;;16.05;10.20;;;0.00;80.90;;;;;;5070859;28;20036;-73
2021/03/06 01:49:26;;;;;;;16.25;9.30;;;0.00;81.10;;;;;;5062429;28;20028;-75
2021/03/06 01:51:52;;;;;;;15.48;9.10;;;-3276.70;81.20;;;;;;5071019;28;20024;-73
2021/03/06 01:54:22;;;;;;;15.35;8.63;;;-3276.70;81.30;;;;;;5065440;28;20486;-71
2021/03/06 01:56:49;;;;;;;14.85;9.40;;;-3276.70;81.20;;;;;;5067110;28;20032;-73
2021/03/06 01:59:15;;;;;;;16.27;9.93;;;-3276.60;81.10;;;;;;5058243;28;20119;-71
2021/03/06 02:01:41;;;;;;;16.50;9.77;;;-3276.70;81.20;;;;;;5069156;28;20028;-71
2021/03/06 02:04:07;;;;;;;15.73;9.70;;;-3276.60;81.20;;;;;;5062136;28;20559;-73
2021/03/06 02:06:32;;;;;;;15.65;9.50;;;-3276.60;81.30;;;;;;5053819;28;20071;-71
2021/03/06 02:08:58;;;;;;;13.45;9.57;;;-3276.50;81.30;;;;;;5071057;28;20036;-74
2021/03/06 02:11:53;;;;;;;15.85;9.68;;;-3276.50;81.40;;;;;;5063979;28;20139;-71
2021/03/06 02:14:41;;;;;;;15.68;10.13;;;-3276.50;81.60;;;;;;5062046;28;20044;-73
2021/03/06 02:17:30;;;;;;;15.50;9.55;;;-3276.50;81.70;;;;;;5066611;28;20486;-71
2021/03/06 02:20:10;;;;;;;15.23;9.25;;;-3276.50;81.90;;;;;;5050926;28;20450;-72
2021/03/06 02:23:26;;;;;;;15.93;9.63;;;-3276.50;81.90;;;;;;5066241;28;20047;-71
2021/03/06 02:26:25;;;;;;;12.05;8.77;;;-3276.50;81.90;;;;;;4958388;28;20113;-72
2021/03/06 02:29:18;;;;;;;16.90;9.25;;;-3276.50;81.80;;;;;;4962787;28;20046;-75
2021/03/06 02:31:47;;;;;;;14.75;9.10;;;-3276.40;81.70;;;;;;5040636;28;20043;-75
2021/03/06 02:34:17;;;;;;;13.77;8.85;;;-3276.40;81.60;;;;;;5044041;28;20373;-74
2021/03/06 02:36:51;;;;;;;16.58;9.27;;;-3276.30;81.60;;;;;;5045311;28;20029;-73
2021/03/06 02:39:19;;;;;;;19.88;10.13;;;-3276.30;81.70;;;;;;5041988;28;20036;-73
2021/03/06 02:41:47;;;;;;;15.90;9.07;;;-3276.30;81.80;;;;;;5044761;28;20059;-72
2021/03/06 02:44:14;;;;;;;16.05;9.70;;;-3276.30;81.70;;;;;;5039492;28;20102;-72
2021/03/06 02:46:41;;;;;;;14.35;9.00;;;-3276.20;81.60;;;;;;5045018;28;20036;-71
2021/03/06 02:49:06;;;;;;;12.93;9.25;;;-3276.20;81.70;;;;;;5037723;28;20074;-74
2021/03/06 02:51:39;;;;;;;14.35;8.73;;;-3276.20;81.90;;;;;;5044881;28;20029;-73
2021/03/06 02:54:06;;;;;;;18.02;9.85;;;-3276.30;82.20;;;;;;5045471;28;20160;-71
2021/03/06 02:56:33;;;;;;;15.98;9.77;;;-3276.30;82.40;;;;;;5048017;28;20082;-72
2021/03/06 02:59:14;;;;;;;14.95;9.52;;;-3276.30;82.50;;;;;;5043567;28;20492;-71
2021/03/06 03:02:17;;;;;;;16.00;9.20;;;-3276.30;82.50;;;;;;5062706;28;20041;-74
2021/03/06 03:05:01;;;;;;;15.90;8.98;;;-3276.30;82.60;;;;;;5065433;28;20059;-71
2021/03/06 03:07:42;;;;;;;15.75;9.98;;;-3276.30;82.60;;;;;;5057528;28;20055;-72
2021/03/06 03:10:12;;;;;;;13.25;9.30;;;-3276.20;82.60;;;;;;5060350;28;20115;-74
2021/03/06 03:12:50;;;;;;;16.45;10.30;;;-3276.20;82.60;;;;;;5057273;28;20063;-74
2021/03/06 03:15:25;;;;;;;14.98;10.23;;;-3276.20;82.70;;;;;;5064740;28;20497;-72
2021/03/06 03:17:52;;;;;;;;;;;-3276.20;82.90;;;;;;5067230;28;20028;-71
2021/03/06 03:20:27;;;;;;;14.32;10.00;;;-3276.20;83.00;;;;;;5062051;28;19920;-71
2021/03/06 03:22:57;;;;;;;;;;;-3276.20;83.10;;;;;;5070199;28;20195;-71
2021/03/06 03:25:25;;;;;;;13.10;9.13;;;-3276.20;82.90;;;;;;5062558;28;19912;-74
2021/03/06 03:27:51;;;;;;;16.70;9.23;;;-3276.10;82.80;;;;;;5061776;28;20028;-71
2021/03/06 03:30:19;;;;;;;17.00;9.25;;;-3276.10;82.80;;;;;;5058569;28;20428;-71
2021/03/06 03:32:49;;;;;;;15.18;9.52;;;-3276.10;82.80;;;;;;5070551;28;20020;-72
2021/03/06 03:35:18;;;;;;;15.68;10.35;;;-3276.10;82.80;;;;;;5061499;28;20522;-74
2021/03/06 03:37:46;;;;;;;17.17;10.07;;;-3276.10;83.00;;;;;;5063264;28;20028;-72
2021/03/06 03:40:16;;;;;;;14.70;9.77;;;-3276.10;83.20;;;;;;5065232;28;20138;-72
2021/03/06 03:42:41;;;;;;;17.27;10.68;;;-3276.10;83.30;;;;;;5068162;28;20036;-71
2021/03/06 03:45:10;;;;;;;16.23;10.02;;;-3276.00;83.30;;;;;;5064106;28;20036;-74
2021/03/06 03:47:38;;;;;;;14.68;10.05;;;-3276.00;83.40;;;;;;5068485;28;20052;-71
2021/03/06 03:50:07;;;;;;;16.05;9.70;;;-3276.00;83.30;;;;;;5066290;28;20078;-75
2021/03/06 03:52:39;;;;;;;15.93;11.10;;;-3276.00;83.20;;;;;;5065279;28;20032;-71
2021/03/06 03:55:09;;;;;;;16.25;11.65;;;-3276.00;83.40;;;;;;5067607;28;20401;-72
2021/03/06 03:57:38;;;;;;;14.95;10.57;;;-3276.00;83.80;;;;;;5064119;28;20032;-71
2021/03/06 04:00:08;;;;;;;17.90;11.40;;;-3276.00;84.20;;;;;;5065722;28;20461;-72
2021/03/06 04:02:35;;;;;;;17.85;11.52;;;-3276.10;84.40;;;;;;5059245;28;20079;-71
2021/03/06 04:05:02;;;;;;;16.75;10.75;;;-3276.10;84.70;;;;;;5070149;28;20040;-73
2021/03/06 04:07:27;;;;;;;17.25;11.82;;;-3276.10;84.80;;;;;;5068542;28;20106;-71
2021/03/06 04:09:53;;;;;;;17.13;11.23;;;-3276.10;84.80;;;;;;5069260;28;20036;-71
2021/03/06 04:12:18;;;;;;;17.08;10.80;;;-3276.10;84.80;;;;;;5066521;28;20434;-74
2021/03/06 04:14:44;;;;;;;17.35;11.77;;;-3276.00;84.90;;;;;;5069195;28;20040;-72
2021/03/06 04:17:13;;;;;;;13.98;11.15;;;-3276.00;84.90;;;;;;5067557;28;20059;-71
2021/03/06 04:19:38;;;;;;;15.52;10.80;;;-3276.00;84.80;;;;;;5065934;28;20036;-71
2021/03/06 04:22:04;;;;;;;15.18;10.32;;;-3275.90;84.70;;;;;;5066833;28;20463;-71
2021/03/06 04:24:30;;;;;;;15.70;9.95;;;-3275.90;84.60;;;;;;5070447;28;20338;-72
2021/03/06 04:26:56;;;;;;;17.52;10.23;;;-3275.90;84.50;;;;;;5071258;28;20081;-73
2021/03/06 04:29:22;;;;;;;14.20;10.18;;;-3275.90;84.40;;;;;;5068867;28;20078;-72
2021/03/06 04:31:48;;;;;;;13.60;10.68;;;-3275.80;84.40;;;;;;5069630;28;20032;-71
2021/03/06 04:34:14;;;;;;;14.73;10.98;;;-3275.80;84.40;;;;;;5066825;28;20032;-72
2021/03/06 04:36:40;;;;;;;18.20;10.75;;;-3275.80;84.50;;;;;;5068113;28;21226;-71
2021/03/06 04:39:06;;;;;;;14.32;11.32;;;-3275.80;84.60;;;;;;5067800;28;20032;-72
2021/03/06 04:41:32;;;;;;;18.08;10.73;;;-3275.80;84.60;;;;;;5066890;28;20082;-72
2021/03/06 04:43:58;;;;;;;16.92;10.73;;;-3275.70;84.60;;;;;;5051861;28;20131;-71
2021/03/06 04:46:24;;;;;;;13.73;10.90;;;-3275.70;84.60;;;;;;5058880;28;20068;-73
2021/03/06 04:48:49;;;;;;;20.65;11.75;;;-3275.70;84.60;;;;;;5064701;28;20063;-71
2021/03/06 04:51:15;;;;;;;17.30;10.23;;;-3275.70;84.70;;;;;;5068208;28;20025;-71
2021/03/06 04:53:40;;;;;;;14.05;11.15;;;-3275.60;84.60;;;;;;5069922;28;20107;-72
2021/03/06 04:56:06;;;;;;;15.70;11.77;;;-3275.60;84.70;;;;;;5070120;28;20048;-71
2021/03/06 04:58:32;;;;;;;17.83;11.32;;;-3275.50;84.70;;;;;;5069637;28;20028;-74
2021/03/06 05:00:57;;;;;;;17.58;12.68;;;-3275.50;84.80;;;;;;5068059;28;20062;-73
2021/03/06 05:03:23;;;;;;;19.27;12.95;;;-3275.50;85.00;;;;;;5068276;28;20100;-71
2021/03/06 05:05:49;;;;;;;15.00;12.23;;;-3275.50;85.10;;;;;;5069104;28;20033;-71
2021/03/06 05:08:15;;;;;;;16.15;13.18;;;-3275.50;85.10;;;;;;5064306;28;20056;-71
2021/03/06 05:10:40;;;;;;;15.27;11.43;;;-3275.50;85.10;;;;;;5064835;28;20029;-73
2021/03/06 05:13:06;;;;;;;17.65;10.60;;;-3275.50;84.90;;;;;;5063646;28;20029;-71
2021/03/06 05:15:32;;;;;;;16.42;11.07;;;-3275.50;84.80;;;;;;5065227;28;20119;-71
2021/03/06 05:17:58;;;;;;;18.42;11.30;;;-3275.50;84.80;;;;;;5061635;28;20388;-71
2021/03/06 05:20:24;;;;;;;21.38;11.55;;;-3275.50;84.80;;;;;;5066376;28;20024;-74
2021/03/06 05:22:50;;;;;;;17.40;12.02;;;-3275.50;84.80;;;;;;5075928;28;20140;-74
2021/03/06 05:25:16;;;;;;;14.30;11.80;;;-3275.40;84.70;;;;;;5071128;28;20045;-74
2021/03/06 05:27:41;;;;;;;15.52;12.10;;;-3275.40;84.80;;;;;;5076756;28;20075;-71
2021/03/06 05:30:08;;;;;;;15.38;11.27;;;-3275.40;84.80;;;;;;5073250;28;20033;-73
2021/03/06 05:32:34;;;;;;;20.10;12.20;;;-3275.40;85.00;;;;;;5064175;28;20028;-71
2021/03/06 05:35:00;;;;;;;17.75;11.52;;;-3275.30;85.10;;;;;;5067785;28;20519;-71
2021/03/06 05:37:26;;;;;;;20.40;12.48;;;-3275.40;85.40;;;;;;5064772;28;20039;-71
2021/03/06 05:39:51;;;;;;;19.80;13.15;;;-3275.40;85.40;;;;;;5069435;28;20060;-71
2021/03/06 05:42:17;;;;;;;17.50;12.75;;;-3275.40;85.50;;;;;;5063117;28;20107;-72
2021/03/06 05:44:43;;;;;;;17.75;12.20;;;-3275.40;85.50;;;;;;5066953;28;20067;-72
2021/03/06 05:47:10;;;;;;;18.92;12.25;;;-3275.40;85.50;;;;;;5065106;28;20135;-72
2021/03/06 05:49:38;;;;;;;19.13;12.13;;;-3275.40;85.40;;;;;;5063466;28;20375;-72
2021/03/06 05:52:06;;;;;;;16.52;12.77;;;-3275.40;85.50;;;;;;5065257;28;20035;-72
2021/03/06 05:54:35;;;;;;;17.98;13.52;;;-3275.50;85.60;;;;;;5066624;28;20040;-71
2021/03/06 05:57:03;;;;;;;19.23;13.25;;;-3275.50;85.80;;;;;;5066174;28;20028;-72
2021/03/06 05:59:29;;;;;;;18.88;13.10;;;-3275.60;86.10;;;;;;5064603;28;20035;-72
2021/03/06 06:01:55;;;;;;;17.60;12.75;;;-3275.50;86.10;;;;;;5066769;28;20032;-71
2021/03/06 06:04:28;;;;;;;21.08;13.05;;;-3275.50;86.10;;;;;;5062227;28;20049;-72
2021/03/06 06:06:55;;;;;;;16.70;13.02;;;-3275.50;86.10;;;;;;5068904;28;20143;-74
2021/03/06 06:09:21;;;;;;;21.02;12.68;;;-3275.50;86.20;;;;;;5061290;28;20553;-71
2021/03/06 06:11:47;;;;;;;22.00;14.05;;;-3275.60;86.20;;;;;;5068422;28;20309;-71
2021/03/06 06:14:12;;;;;;;18.80;12.20;;;-3275.60;86.40;;;;;;5059092;28;20032;-71
2021/03/06 06:16:39;;;;;;;16.60;12.10;;;-3275.60;86.40;;;;;;5058721;28;20398;-72
2021/03/06 06:19:05;;;;;;;19.75;12.45;;;-3275.60;86.40;;;;;;5064358;28;20483;-70
2021/03/06 06:21:44;;;;;;;17.52;12.55;;;-3275.60;86.30;;;;;;5065492;28;20035;-73
2021/03/06 06:24:16;;;;;;;17.85;12.05;;;-3275.60;86.00;;;;;;5068153;28;20024;-71
2021/03/06 06:26:55;;;;;;;16.80;12.70;;;-3275.60;85.70;;;;;;5066427;28;20024;-74
2021/03/06 06:29:38;;;;;;;15.30;11.15;;;-3275.50;85.60;;;;;;5065226;28;20047;-71
2021/03/06 06:32:09;;;;;;;19.73;12.45;;;-3275.50;85.40;;;;;;5068380;28;20080;-71
2021/03/06 06:34:36;;;;;;;17.20;12.27;;;-3275.50;85.60;;;;;;5059448;28;20476;-70
2021/03/06 06:37:08;;;;;;;18.25;12.70;;;-3275.50;85.70;;;;;;5059405;28;20040;-74
2021/03/06 06:39:34;;;;;;;17.48;13.98;;;-3275.50;85.90;;;;;;5061936;28;20044;-72
2021/03/06 06:42:01;;;;;;;16.40;11.50;;;-3275.50;86.00;;;;;;5060581;28;20020;-71
2021/03/06 06:44:29;;;;;;;18.77;12.07;;;-3275.60;86.10;;;;;;5034183;28;20107;-71
2021/03/06 06:46:56;;;;;;;17.17;11.32;;;-3275.60;86.00;;;;;;5045060;28;20046;-71
2021/03/06 06:49:22;;;;;;;18.00;11.93;;;-3275.60;85.70;;;;;;5039491;28;20519;-71
2021/03/06 06:52:04;;;;;;;18.20;11.88;;;-3275.70;85.60;;;;;;5044886;28;20033;-70
2021/03/06 06:54:30;;;;;;;17.60;12.35;;;-3275.70;85.50;;;;;;5066380;28;20101;-73
2021/03/06 06:57:15;;;;;;;20.08;12.77;;;-3275.80;85.50;;;;;;5067938;28;20047;-74
2021/03/06 07:00:08;;;;;;;28.33;16.77;;;-3275.90;85.60;;;;;;5044684;28;20044;-72
2021/03/06 07:02:33;;;;;;;28.73;19.13;;;-3276.00;85.70;;;;;;5032949;28;20029;-72
2021/03/06 07:05:05;;;;;;;22.00;14.40;;;-3276.10;85.80;;;;;;5036706;28;20045;-72
2021/03/06 07:07:39;;;;;;;22.15;14.65;;;-3276.20;85.70;;;;;;5041716;28;20067;-72
2021/03/06 07:10:12;;;;;;;21.33;14.57;;;-3276.20;85.80;;;;;;5056876;28;20047;-72
2021/03/06 07:12:41;;;;;;;24.25;16.80;;;-3276.30;85.80;;;;;;5063537;28;20036;-73
2021/03/06 07:15:17;;;;;;;26.05;16.98;;;-3276.40;85.90;;;;;;5062931;28;20066;-72
2021/03/06 07:17:44;;;;;;;25.15;16.20;;;-3276.40;86.00;;;;;;5066258;28;20612;-72
2021/03/06 07:20:31;;;;;;;23.08;15.80;;;-3276.40;85.90;;;;;;5066256;28;20141;-72
2021/03/06 07:23:10;;;;;;;19.13;13.82;;;-3276.40;86.00;;;;;;5062045;28;20074;-72
2021/03/06 07:25:36;;;;;;;20.98;13.25;;;-3276.50;86.10;;;;;;5048362;28;20066;-72
2021/03/06 07:28:01;;;;;;;22.92;14.23;;;-3276.50;86.00;;;;;;5049126;28;20475;-73
2021/03/06 07:30:27;;;;;;;21.63;14.32;;;-3276.50;86.20;;;;;;5063945;28;20055;-72
2021/03/06 07:32:57;;;;;;;17.92;14.07;;;-3276.60;86.30;;;;;;5056205;28;20142;-72
2021/03/06 07:35:24;;;;;;;20.67;13.88;;;-3276.60;86.40;;;;;;5050472;28;20075;-72
2021/03/06 07:37:57;;;;;;;22.85;13.88;;;0.00;86.40;;;;;;5056091;28;20047;-73
2021/03/06 07:40:28;;;;;;;22.80;14.32;;;0.00;86.20;;;;;;5060756;28;20033;-72
2021/03/06 07:43:10;;;;;;;27.17;14.45;;;0.00;86.00;;;;;;5059176;28;20028;-72
2021/03/06 07:45:37;;;;;;;23.08;13.90;;;0.10;85.90;;;;;;5060436;28;20173;-72
2021/03/06 07:48:11;;;;;;;19.52;13.13;;;0.10;85.70;;;;;;5058062;28;20041;-71
2021/03/06 07:50:44;;;;;;;22.52;14.48;;;0.20;85.70;;;;;;5064785;28;20040;-72
2021/03/06 07:53:12;;;;;;;20.52;13.75;;;0.20;85.60;;;;;;5055007;28;20483;-73
2021/03/06 07:55:39;;;;;;;21.02;13.52;;;0.40;85.50;;;;;;5056777;28;20048;-73
2021/03/06 07:58:09;;;;;;;20.80;13.77;;;0.40;85.40;;;;;;5055940;28;20520;-73
2021/03/06 08:00:42;;;;;;;20.45;14.38;;;0.50;85.20;;;;;;5059904;28;20064;-73
2021/03/06 08:03:27;;;;;;;23.90;14.75;;;0.60;84.60;;;;;;5058759;28;20694;-75
2021/03/06 08:05:57;;;;;;;22.77;14.13;;;0.70;84.30;;;;;;5060776;28;20059;-73
2021/03/06 08:08:53;;;;;;;19.98;14.20;;;0.80;84.10;;;;;;5056217;28;20055;-72
2021/03/06 08:11:20;;;;;;;25.23;15.57;;;1.00;83.70;;;;;;5057959;28;20371;-72
2021/03/06 08:13:54;;;;;;;25.67;17.60;;;1.00;83.20;;;;;;5059457;28;20645;-73
2021/03/06 08:16:23;;;;;;;28.20;18.63;;;1.20;83.30;;;;;;5051687;28;20032;-73
2021/03/06 08:18:55;;;;;;;26.40;17.70;;;1.30;82.30;;;;;;5063489;28;20476;-75
2021/03/06 08:21:41;;;;;;;24.73;16.63;;;1.50;81.10;;;;;;5053842;28;21963;-76
2021/03/06 08:26:54;;;;;;;19.98;12.65;;;1.70;80.10;;;;;;5062347;28;20032;-73
2021/03/06 08:29:23;;;;;;;24.05;13.40;;;1.80;79.50;;;;;;5062321;28;26289;-73
2021/03/06 08:31:56;;;;;;;19.95;12.48;;;2.00;79.20;;;;;;5054050;28;20045;-80
2021/03/06 08:34:45;;;;;;;23.90;12.70;;;2.10;78.30;;;;;;5057834;28;20036;-74
2021/03/06 08:37:14;;;;;;;23.55;13.20;;;2.40;78.50;;;;;;5052341;28;20119;-73
2021/03/06 08:40:19;;;;;;;18.65;12.15;;;2.60;77.50;;;;;;5053471;28;20040;-74
2021/03/06 08:43:02;;;;;;;21.67;11.52;;;2.90;77.40;;;;;;5022634;28;20037;-75
2021/03/06 08:45:30;;;;;;;17.60;10.93;;;3.10;75.50;;;;;;5050836;28;20040;-73
2021/03/06 08:47:58;;;;;;;19.75;12.93;;;3.30;74.20;;;;;;5057083;28;20044;-73
2021/03/06 08:50:24;;;;;;;21.52;10.88;;;3.30;73.20;;;;;;5055590;28;20056;-74
2021/03/06 08:53:13;;;;;;;19.40;10.43;;;3.30;72.60;;;;;;5052557;28;20052;-74
2021/03/06 08:55:41;;;;;;;16.20;10.52;;;3.20;72.50;;;;;;5035178;28;20075;-76
2021/03/06 08:58:11;;;;;;;16.70;10.68;;;3.10;73.20;;;;;;5050980;28;20055;-74
2021/03/06 09:00:49;;;;;;;23.13;12.27;;;3.50;72.70;;;;;;5045386;28;20544;-76
2021/03/06 09:03:17;;;;;;;17.17;11.50;;;3.60;71.40;;;;;;5035405;28;20032;-74
2021/03/06 09:05:45;;;;;;;15.50;9.93;;;3.80;71.10;;;;;;5031515;28;20059;-74
2021/03/06 09:08:11;;;;;;;18.08;10.02;;;3.90;68.40;;;;;;5032935;28;20041;-76
2021/03/06 09:10:44;;;;;;;16.58;9.77;;;4.10;68.00;;;;;;5041573;28;20408;-75
2021/03/06 09:13:18;;;;;;;19.75;12.77;;;4.20;68.10;;;;;;5034445;28;20109;-74
2021/03/06 09:16:01;;;;;;;15.20;10.27;;;4.40;68.60;;;;;;5034583;28;20041;-73
2021/03/06 09:18:29;;;;;;;15.60;8.50;;;4.90;67.50;;;;;;5037493;28;20057;-75
2021/03/06 09:21:09;;;;;;;14.23;8.05;;;5.00;64.70;;;;;;5032393;28;20033;-74
2021/03/06 09:23:37;;;;;;;13.70;8.75;;;4.80;62.20;;;;;;5047715;28;20430;-73
2021/03/06 09:26:17;;;;;;;16.38;8.18;;;4.80;63.20;;;;;;5035934;28;20021;-73
2021/03/06 09:28:46;;;;;;;12.25;7.47;;;5.00;62.30;;;;;;5039002;28;20132;-73
2021/03/06 09:31:22;;;;;;;13.52;8.10;;;5.20;62.50;;;;;;5028842;28;20030;-72
2021/03/06 09:33:48;;;;;;;12.80;7.70;;;5.50;61.50;;;;;;5039867;28;20115;-73
2021/03/06 09:36:15;;;;;;;14.55;7.50;;;5.80;61.10;;;;;;5037140;28;20413;-73
2021/03/06 09:38:44;;;;;;;11.70;7.60;;;6.10;60.00;;;;;;5038564;28;20056;-74
2021/03/06 09:41:10;;;;;;;11.98;6.45;;;6.40;58.80;;;;;;5034765;28;20036;-73
2021/03/06 09:43:37;;;;;;;13.82;7.03;;;6.30;54.60;;;;;;5044461;28;20030;-74
2021/03/06 09:46:12;;;;;;;12.75;6.43;;;6.10;55.80;;;;;;5033203;28;20041;-73
2021/03/06 09:48:45;;;;;;;11.90;6.63;;;6.40;56.10;;;;;;5040400;28;20053;-75
2021/03/06 09:51:11;;;;;;;12.75;6.55;;;6.20;55.10;;;;;;5033478;28;20082;-72
2021/03/06 09:53:37;;;;;;;14.15;7.30;;;6.20;54.50;;;;;;5028545;28;20029;-75
2021/03/06 09:56:13;;;;;;;9.32;6.03;;;6.40;54.30;;;;;;5036190;28;20033;-72
2021/03/06 09:58:41;;;;;;;14.32;8.20;;;6.60;53.30;;;;;;5038870;28;20504;-73
2021/03/06 10:01:18;;;;;;;15.93;8.57;;;6.70;55.70;;;;;;5041894;28;20186;-70
2021/03/06 10:03:46;;;;;;;15.52;8.77;;;6.60;57.70;;;;;;5036133;28;20033;-76
2021/03/06 10:06:15;;;;;;;10.32;5.22;;;6.70;57.60;;;;;;5057121;28;20028;-72
2021/03/06 10:08:59;;;;;;;9.45;5.35;;;6.60;50.90;;;;;;5064401;28;20032;-73
2021/03/06 10:11:45;;;;;;;10.63;5.22;;;6.10;50.30;;;;;;5069627;28;20546;-72
2021/03/06 10:14:16;;;;;;;11.65;5.28;;;6.50;52.10;;;;;;5063020;28;20028;-71
2021/03/06 10:16:50;;;;;;;10.65;5.88;;;6.80;49.50;;;;;;5060915;28;20392;-75
2021/03/06 10:19:18;;;;;;;12.52;5.18;;;6.80;49.00;;;;;;5064541;28;20033;-71
2021/03/06 10:22:04;;;;;;;8.32;4.40;;;7.00;47.20;;;;;;5063500;28;20037;-73
2021/03/06 10:25:02;;;;;;;9.68;4.72;;;7.00;48.90;;;;;;5045674;28;20048;-75
2021/03/06 10:27:47;;;;;;;10.25;4.88;;;7.10;46.40;;;;;;5050215;28;20517;-72
2021/03/06 10:30:18;;;;;;;;;;;7.40;46.60;;;;;;5046106;28;20086;-72
2021/03/06 10:32:53;;;;;;;8.63;4.43;;;7.30;45.00;;;;;;5030086;28;19936;-72
2021/03/06 10:35:46;;;;;;;8.52;5.20;;;7.40;46.10;;;;;;5029928;28;20072;-73
2021/03/06 10:38:11;;;;;;;10.10;4.90;;;7.50;45.10;;;;;;5030165;28;20135;-73
2021/03/06 10:40:45;;;;;;;9.98;5.05;;;7.50;44.60;;;;;;5047124;28;20051;-73
2021/03/06 10:43:27;;;;;;;9.60;4.88;;;7.80;44.10;;;;;;5045843;28;20044;-72
2021/03/06 10:45:54;;;;;;;7.05;4.57;;;7.60;42.50;;;;;;5044612;28;20075;-74
2021/03/06 10:48:33;;;;;;;9.45;5.05;;;7.60;43.80;;;;;;5048767;28;20498;-75
2021/03/06 10:50:58;;;;;;;8.50;5.07;;;7.60;43.20;;;;;;5048965;28;20289;-71
2021/03/06 10:53:25;;;;;;;9.88;4.60;;;7.50;42.20;;;;;;5052059;28;20102;-73
2021/03/06 10:55:52;;;;;;;6.97;4.30;;;7.20;44.80;;;;;;5053875;28;20426;-73
2021/03/06 10:58:18;;;;;;;8.70;4.63;;;7.70;43.90;;;;;;5054609;28;20045;-71
2021/03/06 11:00:46;;;;;;;11.18;4.65;;;7.70;43.00;;;;;;5048740;28;20032;-71
2021/03/06 11:03:13;;;;;;;7.50;4.70;;;7.40;42.90;;;;;;5047787;28;20033;-71
2021/03/06 11:05:40;;;;;;;8.40;4.28;;;7.70;42.10;;;;;;5043477;28;20048;-76
2021/03/06 11:08:20;;;;;;;7.13;4.22;;;7.90;42.60;;;;;;5048693;28;20495;-76
2021/03/06 11:10:51;;;;;;;7.10;4.30;;;8.10;41.90;;;;;;5041516;28;20036;-79
2021/03/06 11:13:18;;;;;;;6.70;4.40;;;8.30;42.20;;;;;;5039994;28;20029;-79
2021/03/06 11:15:49;;;;;;;7.18;4.45;;;8.30;40.70;;;;;;5040729;28;20384;-80
2021/03/06 11:18:15;;;;;;;8.45;4.60;;;8.30;40.00;;;;;;5043310;28;20040;-76
2021/03/06 11:20:41;;;;;;;10.05;4.53;;;8.30;41.40;;;;;;5044700;28;20028;-75
2021/03/06 11:23:08;;;;;;;12.93;5.30;;;8.50;41.10;;;;;;5045907;28;20518;-74
2021/03/06 11:25:34;;;;;;;7.05;4.38;;;8.50;40.70;;;;;;5056848;28;20040;-82
2021/03/06 11:28:04;;;;;;;6.65;4.10;;;8.50;41.20;;;;;;5046582;28;20025;-74
2021/03/06 11:30:33;;;;;;;14.07;7.43;;;8.20;39.10;;;;;;5023392;28;20024;-70
2021/03/06 11:33:00;;;;;;;11.32;6.47;;;8.30;41.60;;;;;;5049002;28;20418;-74
2021/03/06 11:35:27;;;;;;;9.25;6.05;;;8.40;41.50;;;;;;5026242;28;20445;-76
2021/03/06 11:37:54;;;;;;;12.45;7.05;;;8.60;40.40;;;;;;5028933;28;20120;-71
2021/03/06 11:40:22;;;;;;;10.60;6.05;;;8.60;40.90;;;;;;5031009;28;20045;-75
2021/03/06 11:42:49;;;;;;;10.10;4.97;;;8.50;40.60;;;;;;5036742;28;20044;-73
2021/03/06 11:45:16;;;;;;;8.93;4.70;;;8.60;40.50;;;;;;5024819;28;20216;-71
2021/03/06 11:47:43;;;;;;;7.60;4.70;;;8.60;38.10;;;;;;5031347;28;20442;-73
2021/03/06 11:50:10;;;;;;;9.05;5.90;;;8.60;40.40;;;;;;5031702;28;20037;-71
2021/03/06 11:52:36;;;;;;;9.80;5.13;;;8.80;41.30;;;;;;5035802;28;20470;-74
2021/03/06 11:55:07;;;;;;;8.48;5.13;;;8.60;39.90;;;;;;5029031;28;20033;-77
2021/03/06 11:57:33;;;;;;;8.77;4.93;;;8.60;41.50;;;;;;5025894;28;20281;-69
2021/03/06 11:59:59;;;;;;;9.25;5.65;;;8.60;39.80;;;;;;5030212;28;20032;-74
2021/03/06 12:02:25;;;;;;;11.27;6.55;;;8.60;41.10;;;;;;5036169;28;20054;-75
2021/03/06 12:04:51;;;;;;;11.07;5.57;;;8.70;41.30;;;;;;5049316;28;20047;-75
2021/03/06 12:07:17;;;;;;;9.73;5.47;;;8.90;41.50;;;;;;5054974;28;20033;-72
2021/03/06 12:09:42;;;;;;;9.75;4.95;;;9.10;41.20;;;;;;5041611;28;20032;-70
2021/03/06 12:12:08;;;;;;;10.65;5.50;;;9.30;40.30;;;;;;5052533;28;20155;-74
2021/03/06 12:14:34;;;;;;;8.15;5.15;;;9.20;39.40;;;;;;5052777;28;20033;-69
2021/03/06 12:17:00;;;;;;;12.15;6.00;;;8.40;40.30;;;;;;5045528;28;20102;-72
2021/03/06 12:19:25;;;;;;;9.07;5.55;;;8.30;41.20;;;;;;5036999;28;20073;-70
2021/03/06 12:21:51;;;;;;;11.70;6.25;;;8.50;41.30;;;;;;5022515;28;20565;-72
2021/03/06 12:24:17;;;;;;;11.38;6.22;;;8.10;42.50;;;;;;5025683;28;20061;-70
2021/03/06 12:26:42;;;;;;;11.25;6.07;;;7.70;42.70;;;;;;5025028;28;20108;-72
2021/03/06 12:29:08;;;;;;;10.15;5.60;;;7.70;43.50;;;;;;5031464;28;20183;-72
2021/03/06 12:31:34;;;;;;;11.07;6.90;;;7.70;43.40;;;;;;5028087;28;20112;-69
2021/03/06 12:33:59;;;;;;;10.75;6.60;;;7.90;43.70;;;;;;5031748;28;20094;-74
2021/03/06 12:36:26;;;;;;;11.80;6.55;;;8.30;44.50;;;;;;5026784;28;20037;-76
2021/03/06 12:38:51;;;;;;;10.80;6.72;;;8.60;42.70;;;;;;5025060;28;20037;-76
2021/03/06 12:41:17;;;;;;;12.38;6.30;;;8.80;43.70;;;;;;5038321;28;20051;-72
2021/03/06 12:43:43;;;;;;;10.32;6.40;;;8.50;43.20;;;;;;5049091;28;21355;-74